Time;durP1;ratioP1;P1;durP2;ratioP2;P2;SDS_P1;SDS_P2;PMS_P1;PMS_P2;Temp;Humidity;BMP_temperature;BMP_pressure;BME280_temperature;BME280_humidity;BME280_pressure;Samples;Min_cycle;Max_cycle;Signal;HPM_P1;HPM_P2
2021/06/30 00:00:40;;;;;;;10.73;6.50;;;18.20;99.90;;;;;;5051037;28;21173;-56
2021/06/30 00:03:07;;;;;;;12.17;8.30;;;18.20;99.90;;;;;;5049609;28;20685;-59
2021/06/30 00:05:34;;;;;;;7.73;6.90;;;18.20;99.90;;;;;;5049722;28;20657;-56
2021/06/30 00:08:02;;;;;;;8.43;7.73;;;18.20;99.90;;;;;;5049769;28;21194;-58
2021/06/30 00:10:30;;;;;;;12.10;7.37;;;18.20;99.90;;;;;;5048828;28;20642;-57
2021/06/30 00:12:58;;;;;;;8.50;7.63;;;18.20;99.90;;;;;;5051308;28;21213;-57
2021/06/30 00:15:26;;;;;;;7.17;6.47;;;18.20;99.90;;;;;;5049841;28;20759;-52
2021/06/30 00:17:53;;;;;;;8.57;7.50;;;18.20;99.90;;;;;;5049577;28;20658;-57
2021/06/30 00:20:21;;;;;;;8.13;7.43;;;18.10;99.90;;;;;;5049200;28;20717;-56
2021/06/30 00:22:48;;;;;;;6.93;6.43;;;18.20;99.90;;;;;;5050266;28;20657;-54
2021/06/30 00:25:16;;;;;;;7.43;6.83;;;18.20;99.90;;;;;;5049697;28;21312;-57
2021/06/30 00:27:44;;;;;;;10.13;5.97;;;18.10;99.90;;;;;;5049710;28;20646;-58
2021/06/30 00:30:13;;;;;;;8.47;7.40;;;18.10;99.90;;;;;;5049655;28;20657;-58
2021/06/30 00:32:40;;;;;;;8.57;7.77;;;18.10;99.90;;;;;;5052203;28;21338;-57
2021/06/30 00:35:08;;;;;;;7.97;7.17;;;18.10;99.90;;;;;;5048249;28;21210;-57
2021/06/30 00:37:35;;;;;;;8.77;7.97;;;18.00;99.90;;;;;;5052547;28;20652;-57
2021/06/30 00:40:03;;;;;;;8.53;7.17;;;18.10;99.90;;;;;;5047034;28;20665;-56
2021/06/30 00:42:30;;;;;;;7.57;6.97;;;18.10;99.90;;;;;;5049480;28;21014;-56
2021/06/30 00:44:58;;;;;;;8.27;7.30;;;18.00;99.90;;;;;;5048990;28;21280;-57
2021/06/30 00:47:26;;;;;;;8.50;7.67;;;18.10;99.90;;;;;;5050041;28;20659;-56
2021/06/30 00:49:53;;;;;;;8.30;7.10;;;18.10;99.90;;;;;;5048650;28;20674;-56
2021/06/30 00:52:20;;;;;;;10.20;7.57;;;18.10;99.90;;;;;;5049790;28;20654;-55
2021/06/30 00:54:47;;;;;;;9.70;7.23;;;18.00;99.90;;;;;;5052099;28;20657;-57
2021/06/30 00:57:15;;;;;;;8.07;7.27;;;18.00;99.90;;;;;;5049630;28;20658;-56
2021/06/30 00:59:42;;;;;;;8.33;7.63;;;18.00;99.90;;;;;;5049122;28;20626;-55
2021/06/30 01:02:11;;;;;;;7.47;6.73;;;18.00;99.90;;;;;;5049756;28;20661;-55
2021/06/30 01:04:38;;;;;;;7.97;7.20;;;18.10;99.90;;;;;;5045365;28;20686;-56
2021/06/30 01:07:05;;;;;;;7.30;6.60;;;18.10;99.90;;;;;;5050863;28;20654;-56
2021/06/30 01:09:32;;;;;;;7.53;6.83;;;18.10;99.90;;;;;;5053768;28;20649;-56
2021/06/30 01:12:00;;;;;;;13.33;7.20;;;18.00;99.90;;;;;;5053033;28;20658;-55
2021/06/30 01:14:27;;;;;;;8.47;6.80;;;18.00;99.90;;;;;;5050296;28;20682;-56
2021/06/30 01:16:55;;;;;;;5.63;5.10;;;18.00;99.90;;;;;;5052868;28;20664;-56
2021/06/30 01:19:23;;;;;;;7.73;6.10;;;18.00;99.90;;;;;;5053803;28;20641;-57
2021/06/30 01:21:51;;;;;;;7.20;6.60;;;17.90;99.90;;;;;;5053047;28;20637;-57
2021/06/30 01:24:19;;;;;;;7.80;7.20;;;17.90;99.90;;;;;;5082753;22;21122;-47
2021/06/30 01:26:47;;;;;;;5.93;5.27;;;17.90;99.90;;;;;;5066807;28;20726;-50
2021/06/30 01:29:14;;;;;;;6.50;5.90;;;18.00;99.90;;;;;;5071637;28;21266;-49
2021/06/30 01:31:41;;;;;;;6.80;6.20;;;18.00;99.90;;;;;;5069517;28;20664;-50
2021/06/30 01:34:10;;;;;;;6.87;6.30;;;18.00;99.90;;;;;;5070558;28;21052;-50
2021/06/30 01:36:46;;;;;;;7.87;6.40;;;18.10;99.90;;;;;;5069463;28;20720;-50
2021/06/30 01:39:14;;;;;;;9.50;6.93;;;18.10;99.90;;;;;;5065732;28;20767;-49
2021/06/30 01:41:42;;;;;;;7.23;6.53;;;18.10;99.90;;;;;;5070872;28;20652;-50
2021/06/30 01:44:10;;;;;;;6.77;6.23;;;18.00;99.90;;;;;;5072637;28;20700;-50
2021/06/30 01:46:37;;;;;;;7.77;7.10;;;18.00;99.90;;;;;;5070693;28;20645;-50
2021/06/30 01:49:04;;;;;;;7.50;6.83;;;18.00;99.90;;;;;;5070501;28;20625;-50
2021/06/30 01:51:31;;;;;;;6.27;5.63;;;18.00;99.90;;;;;;5070206;28;20653;-49
2021/06/30 01:53:59;;;;;;;7.10;6.50;;;17.90;99.90;;;;;;5069091;28;20684;-48
2021/06/30 01:56:27;;;;;;;7.30;6.70;;;17.90;99.90;;;;;;5049258;28;20625;-49
2021/06/30 01:59:00;;;;;;;9.87;6.43;;;17.90;99.90;;;;;;5068049;28;20661;-50
2021/06/30 02:01:27;;;;;;;7.97;7.20;;;17.90;99.90;;;;;;5070670;28;20704;-51
2021/06/30 02:03:55;;;;;;;9.53;6.53;;;17.80;99.90;;;;;;5069902;28;20688;-50
2021/06/30 02:06:22;;;;;;;8.60;6.53;;;17.80;99.90;;;;;;5069711;28;21234;-49
2021/06/30 02:08:50;;;;;;;7.90;7.30;;;17.80;99.90;;;;;;5069443;28;20706;-50
2021/06/30 02:11:17;;;;;;;6.27;5.77;;;17.80;99.90;;;;;;5052253;28;21099;-50
2021/06/30 02:13:44;;;;;;;8.30;6.93;;;17.80;99.90;;;;;;5069322;28;20676;-52
2021/06/30 02:16:13;;;;;;;6.50;6.07;;;17.80;99.90;;;;;;5070203;28;20715;-51
2021/06/30 02:18:40;;;;;;;6.60;6.00;;;17.80;99.90;;;;;;5068781;28;20644;-52
2021/06/30 02:21:08;;;;;;;7.17;6.57;;;17.80;99.90;;;;;;5069695;28;20657;-49
2021/06/30 02:23:35;;;;;;;7.17;6.23;;;17.70;99.90;;;;;;5069616;28;20656;-51
2021/06/30 02:26:02;;;;;;;5.60;5.20;;;17.70;99.90;;;;;;5069094;28;20684;-52
2021/06/30 02:28:30;;;;;;;6.97;6.37;;;17.70;99.90;;;;;;5069581;28;20667;-52
2021/06/30 02:30:57;;;;;;;6.77;5.70;;;17.70;99.90;;;;;;5069642;28;20664;-51
2021/06/30 02:33:25;;;;;;;5.87;5.37;;;17.60;99.90;;;;;;5069409;28;20661;-51
2021/06/30 02:35:53;;;;;;;5.80;5.30;;;17.60;99.90;;;;;;5069259;28;21037;-52
2021/06/30 02:38:20;;;;;;;5.83;5.30;;;17.60;99.90;;;;;;5069439;28;20641;-52
2021/06/30 02:40:47;;;;;;;5.93;5.43;;;17.60;99.90;;;;;;5068450;28;21262;-51
2021/06/30 02:43:14;;;;;;;6.67;6.07;;;17.60;99.90;;;;;;5069340;28;20661;-51
2021/06/30 02:45:41;;;;;;;8.37;7.57;;;17.50;99.90;;;;;;5069070;28;21236;-51
2021/06/30 02:48:09;;;;;;;7.30;5.60;;;17.50;99.90;;;;;;5067847;28;20637;-52
2021/06/30 02:50:38;;;;;;;6.97;6.30;;;17.50;99.90;;;;;;5069311;28;20641;-51
2021/06/30 02:53:05;;;;;;;7.87;6.37;;;17.50;99.90;;;;;;5069027;28;20653;-51
2021/06/30 02:55:32;;;;;;;10.23;8.13;;;17.50;99.90;;;;;;5069533;28;20652;-52
2021/06/30 02:58:00;;;;;;;6.77;6.10;;;17.60;99.90;;;;;;5069146;28;20645;-52
2021/06/30 03:00:27;;;;;;;6.90;6.13;;;17.60;99.90;;;;;;5058740;28;21228;-51
2021/06/30 03:02:54;;;;;;;8.43;7.13;;;17.60;99.90;;;;;;5069147;28;20687;-52
2021/06/30 03:05:21;;;;;;;7.30;6.70;;;17.60;99.90;;;;;;5068473;28;20738;-52
2021/06/30 03:07:51;;;;;;;6.70;6.07;;;17.60;99.90;;;;;;5069060;28;20652;-52
2021/06/30 03:10:19;;;;;;;8.00;7.23;;;17.50;99.90;;;;;;5068758;28;20720;-51
2021/06/30 03:12:46;;;;;;;7.30;6.57;;;17.50;99.90;;;;;;5069763;28;20668;-52
2021/06/30 03:15:14;;;;;;;7.17;6.57;;;17.50;99.90;;;;;;5068457;28;20700;-51
2021/06/30 03:17:41;;;;;;;7.93;7.23;;;17.50;99.90;;;;;;5067683;28;20656;-51
2021/06/30 03:20:10;;;;;;;7.20;6.60;;;17.50;99.90;;;;;;5069099;28;20660;-51
2021/06/30 03:22:38;;;;;;;7.40;6.63;;;17.50;99.90;;;;;;5068984;28;20649;-51
2021/06/30 03:25:08;;;;;;;8.13;7.33;;;17.50;99.90;;;;;;5067768;28;20692;-51
2021/06/30 03:27:35;;;;;;;7.13;6.47;;;17.50;99.90;;;;;;5068142;28;20652;-50
2021/06/30 03:30:02;;;;;;;6.90;6.27;;;17.50;99.90;;;;;;5068212;28;20660;-51
2021/06/30 03:32:29;;;;;;;7.13;6.20;;;17.50;99.90;;;;;;5068363;28;20605;-50
2021/06/30 03:34:57;;;;;;;6.57;5.90;;;17.50;99.90;;;;;;5069162;28;20669;-50
2021/06/30 03:37:24;;;;;;;6.80;6.13;;;17.50;99.90;;;;;;5068883;28;20711;-50
2021/06/30 03:39:51;;;;;;;6.73;6.23;;;17.50;99.90;;;;;;5068737;28;20655;-50
2021/06/30 03:42:20;;;;;;;6.77;6.20;;;17.50;99.90;;;;;;5068182;28;21181;-50
2021/06/30 03:44:47;;;;;;;7.27;5.77;;;17.50;99.90;;;;;;5068384;28;20649;-50
2021/06/30 03:47:15;;;;;;;7.53;6.93;;;17.50;99.90;;;;;;5070943;28;20672;-50
2021/06/30 03:49:42;;;;;;;7.10;6.50;;;17.50;99.90;;;;;;5068430;28;20653;-50
2021/06/30 03:52:09;;;;;;;6.60;6.00;;;17.50;99.90;;;;;;5068361;28;20734;-51
2021/06/30 03:54:36;;;;;;;6.97;6.27;;;17.50;99.90;;;;;;5068476;28;20687;-50
2021/06/30 03:57:04;;;;;;;6.60;6.10;;;17.50;99.90;;;;;;5067987;28;20660;-51
2021/06/30 03:59:32;;;;;;;6.70;6.10;;;17.50;99.90;;;;;;5067819;28;20653;-50
2021/06/30 04:02:00;;;;;;;5.97;5.47;;;17.50;99.90;;;;;;5065507;28;21298;-50
2021/06/30 04:04:27;;;;;;;6.20;5.60;;;17.60;99.90;;;;;;5065013;28;20688;-51
2021/06/30 04:06:54;;;;;;;4.87;4.47;;;17.60;99.90;;;;;;5066614;28;21203;-49
2021/06/30 04:09:22;;;;;;;7.27;5.10;;;17.60;99.90;;;;;;5069011;28;20735;-50
2021/06/30 04:11:49;;;;;;;7.83;5.13;;;17.60;99.90;;;;;;5068068;28;20652;-49
2021/06/30 04:14:17;;;;;;;6.67;5.10;;;17.50;99.90;;;;;;5067624;28;22099;-51
2021/06/30 04:16:45;;;;;;;4.80;4.40;;;17.60;99.90;;;;;;5068843;28;20744;-51
2021/06/30 04:19:12;;;;;;;5.37;4.97;;;17.50;99.90;;;;;;5067892;28;20657;-52
2021/06/30 04:21:40;;;;;;;8.10;5.90;;;17.50;99.90;;;;;;5068811;28;20721;-52
2021/06/30 04:24:08;;;;;;;5.77;5.27;;;17.50;99.90;;;;;;5065656;28;20698;-51
2021/06/30 04:26:35;;;;;;;5.73;5.07;;;17.60;99.90;;;;;;5067954;28;21206;-51
2021/06/30 04:29:02;;;;;;;4.93;4.60;;;17.60;99.90;;;;;;5067582;28;20653;-51
2021/06/30 04:31:29;;;;;;;6.40;4.57;;;17.60;99.90;;;;;;5068925;28;20654;-51
2021/06/30 04:33:58;;;;;;;7.30;5.80;;;17.60;99.90;;;;;;5068198;28;20703;-51
2021/06/30 04:36:25;;;;;;;6.37;5.63;;;17.70;99.90;;;;;;5067751;28;20668;-50
2021/06/30 04:38:52;;;;;;;9.07;4.60;;;17.70;99.90;;;;;;5067952;28;20652;-50
2021/06/30 04:41:19;;;;;;;5.47;4.43;;;17.70;99.90;;;;;;5071163;28;20657;-50
2021/06/30 04:43:47;;;;;;;5.40;4.73;;;17.80;99.90;;;;;;5071557;28;20652;-51
2021/06/30 04:46:14;;;;;;;7.17;4.63;;;17.80;99.90;;;;;;5071229;28;21255;-51
2021/06/30 04:48:41;;;;;;;5.03;4.63;;;17.80;99.90;;;;;;5074054;28;20621;-51
2021/06/30 04:51:10;;;;;;;6.80;4.57;;;17.80;99.90;;;;;;5071192;28;20705;-51
2021/06/30 04:53:37;;;;;;;7.53;5.17;;;17.80;99.90;;;;;;5071968;28;21199;-51
2021/06/30 04:56:04;;;;;;;6.60;5.97;;;17.80;99.90;;;;;;5071640;28;20653;-49
2021/06/30 04:58:32;;;;;;;8.73;5.70;;;17.90;99.90;;;;;;5071359;28;20685;-50
2021/06/30 05:00:59;;;;;;;5.33;4.80;;;17.90;99.90;;;;;;5071076;28;20648;-50
2021/06/30 05:03:28;;;;;;;5.63;4.40;;;17.80;99.90;;;;;;5067314;28;21085;-49
2021/06/30 05:05:56;;;;;;;5.10;4.70;;;17.80;99.90;;;;;;5071060;28;21181;-51
2021/06/30 05:08:24;;;;;;;5.90;5.40;;;17.80;99.90;;;;;;5071836;28;21204;-52
2021/06/30 05:10:52;;;;;;;5.17;4.67;;;17.80;99.90;;;;;;5071387;28;20687;-51
2021/06/30 05:13:20;;;;;;;6.97;6.47;;;17.80;99.90;;;;;;5069787;28;20730;-51
2021/06/30 05:15:47;;;;;;;6.37;5.23;;;17.90;99.90;;;;;;5069619;28;20700;-51
2021/06/30 05:18:14;;;;;;;6.03;5.47;;;17.80;99.90;;;;;;5071179;28;20679;-51
2021/06/30 05:20:42;;;;;;;7.13;5.70;;;17.80;99.90;;;;;;5070435;28;20661;-52
2021/06/30 05:23:09;;;;;;;6.10;5.00;;;17.90;99.90;;;;;;5052713;28;20676;-51
2021/06/30 05:25:37;;;;;;;5.90;5.40;;;17.90;99.90;;;;;;5069671;28;20693;-49
2021/06/30 05:28:05;;;;;;;6.47;5.87;;;18.00;99.90;;;;;;5051695;28;20657;-50
2021/06/30 05:30:32;;;;;;;5.80;4.80;;;18.30;99.90;;;;;;5070300;28;20649;-50
2021/06/30 05:32:59;;;;;;;5.73;5.33;;;18.40;99.90;;;;;;5070708;28;20652;-49
2021/06/30 05:35:27;;;;;;;5.60;5.00;;;18.70;99.90;;;;;;5072398;28;20808;-54
2021/06/30 05:37:54;;;;;;;8.03;5.50;;;18.80;99.60;;;;;;5070058;28;21013;-50
2021/06/30 05:40:21;;;;;;;5.80;5.30;;;18.90;99.50;;;;;;5069367;28;20660;-51
2021/06/30 05:42:50;;;;;;;7.70;6.03;;;18.80;99.00;;;;;;5069447;28;20660;-52
2021/06/30 05:45:17;;;;;;;7.20;6.33;;;18.60;98.90;;;;;;5069690;28;20680;-51
2021/06/30 05:47:44;;;;;;;6.37;5.70;;;18.40;99.10;;;;;;5069879;28;20625;-51
2021/06/30 05:50:13;;;;;;;5.80;5.30;;;18.50;99.80;;;;;;5070790;28;20656;-48
2021/06/30 05:52:40;;;;;;;6.17;5.70;;;18.50;99.60;;;;;;5069942;28;21196;-50
2021/06/30 05:55:08;;;;;;;5.33;4.93;;;18.60;99.70;;;;;;5070953;28;21232;-51
2021/06/30 05:57:36;;;;;;;6.17;5.43;;;18.60;99.90;;;;;;5052340;28;20629;-51
2021/06/30 06:00:06;;;;;;;4.10;3.80;;;18.70;99.80;;;;;;5070205;28;20660;-51
2021/06/30 06:02:33;;;;;;;5.40;5.00;;;18.90;99.50;;;;;;5070118;28;20637;-51
2021/06/30 06:05:01;;;;;;;4.67;4.27;;;18.70;98.80;;;;;;5069615;28;20656;-51
2021/06/30 06:07:28;;;;;;;5.20;4.60;;;18.70;99.30;;;;;;5070453;28;20684;-50
2021/06/30 06:09:56;;;;;;;4.20;3.80;;;19.00;99.40;;;;;;5070092;28;20656;-49
2021/06/30 06:12:23;;;;;;;4.80;4.40;;;19.20;98.80;;;;;;5070242;28;20653;-49
2021/06/30 06:14:51;;;;;;;5.70;4.23;;;19.30;98.40;;;;;;5071296;28;20688;-50
2021/06/30 06:17:21;;;;;;;6.53;3.80;;;19.20;98.30;;;;;;5052410;28;20629;-47
2021/06/30 06:19:49;;;;;;;5.00;4.10;;;19.20;98.40;;;;;;5069363;28;20631;-50
2021/06/30 06:22:16;;;;;;;5.50;3.70;;;19.30;98.50;;;;;;5068579;28;20685;-49
2021/06/30 06:24:43;;;;;;;3.53;3.30;;;19.60;97.40;;;;;;5048840;28;20672;-49
2021/06/30 06:27:11;;;;;;;6.23;4.20;;;19.70;97.80;;;;;;5069466;28;20646;-49
2021/06/30 06:29:39;;;;;;;3.80;3.47;;;19.50;97.20;;;;;;5069791;28;20649;-49
2021/06/30 06:32:06;;;;;;;4.27;3.33;;;19.40;97.20;;;;;;5069366;28;20649;-48
2021/06/30 06:34:35;;;;;;;3.40;3.17;;;19.30;97.90;;;;;;5068816;28;20652;-49
2021/06/30 06:37:03;;;;;;;2.90;2.70;;;19.60;97.60;;;;;;5068832;28;20656;-49
2021/06/30 06:39:32;;;;;;;4.50;2.67;;;19.60;97.70;;;;;;5069043;28;20668;-48
2021/06/30 06:42:01;;;;;;;3.40;2.57;;;19.70;97.20;;;;;;5069403;28;21170;-48
2021/06/30 06:44:29;;;;;;;2.63;2.43;;;19.70;97.20;;;;;;5067808;28;20684;-47
2021/06/30 06:46:56;;;;;;;3.53;2.83;;;19.80;97.40;;;;;;5067278;28;20691;-48
2021/06/30 06:49:23;;;;;;;5.10;3.30;;;19.80;97.20;;;;;;5069147;28;21201;-51
2021/06/30 06:51:52;;;;;;;3.60;2.23;;;19.90;97.10;;;;;;5069466;28;20653;-50
2021/06/30 06:54:19;;;;;;;7.73;2.67;;;20.40;97.00;;;;;;5068909;28;20668;-50
2021/06/30 06:56:46;;;;;;;3.83;3.50;;;20.40;96.70;;;;;;5069887;28;20674;-51
2021/06/30 06:59:16;;;;;;;3.73;3.40;;;20.20;95.90;;;;;;5068807;28;20657;-52
2021/06/30 07:01:46;;;;;;;3.67;3.37;;;20.10;97.20;;;;;;5064262;28;20694;-50
2021/06/30 07:04:15;;;;;;;4.80;4.33;;;20.40;96.90;;;;;;5065804;28;20689;-49
2021/06/30 07:06:42;;;;;;;4.73;4.33;;;20.50;95.90;;;;;;5065710;28;20685;-49
2021/06/30 07:09:11;;;;;;;4.80;4.40;;;19.90;95.40;;;;;;5069123;28;21367;-50
2021/06/30 07:11:38;;;;;;;6.70;5.40;;;19.50;96.70;;;;;;5068749;28;21141;-50
2021/06/30 07:14:06;;;;;;;6.33;5.20;;;19.60;97.60;;;;;;5069454;28;20723;-50
2021/06/30 07:16:36;;;;;;;6.43;5.50;;;19.40;97.10;;;;;;5069813;28;20649;-51
2021/06/30 07:19:06;;;;;;;5.70;5.17;;;19.70;98.50;;;;;;5069011;28;21034;-49
2021/06/30 07:21:33;;;;;;;4.97;4.50;;;19.90;97.60;;;;;;5068398;28;20653;-51
2021/06/30 07:24:01;;;;;;;5.17;4.27;;;19.90;97.40;;;;;;5069061;28;20697;-51
2021/06/30 07:26:29;;;;;;;3.93;3.63;;;19.90;97.00;;;;;;5066658;28;20696;-51
2021/06/30 07:28:57;;;;;;;5.73;3.90;;;19.60;96.70;;;;;;5068347;28;21190;-49
2021/06/30 07:31:24;;;;;;;3.30;3.10;;;19.50;97.30;;;;;;5067533;28;20695;-49
2021/06/30 07:33:51;;;;;;;3.07;2.70;;;19.80;97.50;;;;;;5069271;28;20684;-49
2021/06/30 07:36:19;;;;;;;3.30;2.50;;;20.20;96.50;;;;;;5068832;28;20686;-51
2021/06/30 07:38:46;;;;;;;5.27;2.70;;;20.20;96.70;;;;;;5069529;28;20661;-51
2021/06/30 07:41:13;;;;;;;4.37;3.10;;;20.30;96.50;;;;;;5068171;28;20966;-47
2021/06/30 07:43:42;;;;;;;5.70;3.20;;;20.30;96.50;;;;;;5067981;28;20648;-49
2021/06/30 07:46:09;;;;;;;6.93;3.80;;;20.40;97.00;;;;;;5069506;28;20664;-49
2021/06/30 07:48:36;;;;;;;4.30;3.90;;;20.60;96.40;;;;;;5069807;28;20654;-50
2021/06/30 07:51:04;;;;;;;8.20;4.40;;;20.40;95.70;;;;;;5068426;28;20670;-50
2021/06/30 07:53:31;;;;;;;4.00;3.70;;;20.30;96.70;;;;;;5068365;28;20728;-50
2021/06/30 07:55:58;;;;;;;4.67;4.27;;;20.00;96.50;;;;;;5069088;28;20669;-50
2021/06/30 07:58:26;;;;;;;3.63;3.33;;;19.90;97.00;;;;;;5068697;28;20994;-48
2021/06/30 08:00:55;;;;;;;8.53;3.93;;;20.10;97.00;;;;;;5068797;28;20625;-49
2021/06/30 08:03:25;;;;;;;5.90;4.10;;;20.00;96.40;;;;;;5068503;28;20720;-49
2021/06/30 08:05:55;;;;;;;3.80;3.50;;;20.00;96.90;;;;;;5068292;28;20645;-52
2021/06/30 08:08:22;;;;;;;3.80;3.50;;;20.00;97.20;;;;;;5067219;28;20645;-49
2021/06/30 08:10:49;;;;;;;4.00;2.80;;;19.90;96.80;;;;;;5068184;28;21026;-49
2021/06/30 08:13:16;;;;;;;2.77;2.40;;;19.90;96.60;;;;;;5067707;28;20660;-51
2021/06/30 08:15:44;;;;;;;3.83;3.03;;;19.90;96.80;;;;;;5072253;28;20684;-51
2021/06/30 08:18:12;;;;;;;3.60;3.30;;;19.60;96.70;;;;;;5071915;28;21061;-52
2021/06/30 08:20:40;;;;;;;3.87;3.57;;;19.60;97.40;;;;;;5071729;28;20656;-49
2021/06/30 08:23:07;;;;;;;3.67;2.27;;;19.40;97.00;;;;;;5071493;28;20693;-49
2021/06/30 08:25:37;;;;;;;2.60;2.10;;;19.30;97.40;;;;;;5071474;28;20693;-49
2021/06/30 08:28:05;;;;;;;2.67;2.47;;;19.40;97.30;;;;;;5071935;28;21043;-48
2021/06/30 08:30:32;;;;;;;3.57;3.30;;;19.40;97.30;;;;;;5072125;28;20649;-49
2021/06/30 08:33:00;;;;;;;2.90;2.70;;;19.40;97.30;;;;;;5068568;28;20657;-49
2021/06/30 08:35:29;;;;;;;2.53;2.33;;;19.50;97.50;;;;;;5072039;28;20710;-49
2021/06/30 08:37:56;;;;;;;2.27;2.07;;;19.40;97.60;;;;;;5072292;28;20698;-49
2021/06/30 08:40:26;;;;;;;3.20;3.00;;;19.30;97.50;;;;;;5072141;28;21177;-48
2021/06/30 08:42:53;;;;;;;3.37;3.17;;;19.20;97.80;;;;;;5053769;28;20621;-49
2021/06/30 08:45:21;;;;;;;3.33;3.00;;;19.10;98.10;;;;;;5072517;28;20722;-49
2021/06/30 08:47:48;;;;;;;6.30;3.47;;;19.20;97.90;;;;;;5071646;28;20707;-50
2021/06/30 08:50:18;;;;;;;3.90;3.60;;;19.00;97.60;;;;;;5072298;28;20657;-49
2021/06/30 08:52:53;;;;;;;3.67;3.27;;;18.80;98.20;;;;;;5072008;28;20657;-47
2021/06/30 08:55:22;;;;;;;6.93;3.67;;;18.90;98.60;;;;;;5072726;28;21315;-50
2021/06/30 08:57:52;;;;;;;3.83;3.53;;;18.90;98.60;;;;;;5072253;28;20621;-48
2021/06/30 09:00:24;;;;;;;3.93;3.60;;;19.30;98.50;;;;;;5073163;28;20689;-52
2021/06/30 09:09:00;;;;;;;4.00;3.70;;;20.10;96.80;;;;;;5071494;28;20613;-51
2021/06/30 09:11:28;;;;;;;3.73;3.40;;;20.40;96.10;;;;;;5070630;28;20636;-51
2021/06/30 09:14:23;;;;;;;5.83;4.87;;;20.40;95.20;;;;;;5071424;28;20673;-56
2021/06/30 09:16:59;;;;;;;4.50;4.10;;;20.20;95.80;;;;;;5052591;28;20722;-51
2021/06/30 09:20:06;;;;;;;4.50;4.10;;;20.30;95.30;;;;;;5071038;28;20609;-51
2021/06/30 09:22:42;;;;;;;4.43;4.13;;;20.30;94.70;;;;;;5070331;28;20625;-50
2021/06/30 09:25:27;;;;;;;4.27;3.87;;;20.40;95.00;;;;;;5070232;28;20681;-49
2021/06/30 09:27:56;;;;;;;6.70;3.37;;;20.30;94.30;;;;;;5069614;28;20695;-49
2021/06/30 09:30:23;;;;;;;4.97;3.90;;;20.30;94.90;;;;;;5070653;28;20699;-49
2021/06/30 09:33:00;;;;;;;3.33;3.03;;;20.30;94.60;;;;;;5070721;28;20968;-49
2021/06/30 09:35:34;;;;;;;3.00;2.70;;;20.30;94.10;;;;;;5070454;28;21010;-49
2021/06/30 09:38:30;;;;;;;5.57;2.43;;;20.20;94.00;;;;;;5070726;28;20648;-49
2021/06/30 09:40:59;;;;;;;2.40;2.20;;;20.20;94.00;;;;;;5070445;28;20652;-48
2021/06/30 09:43:30;;;;;;;4.03;2.40;;;20.40;94.20;;;;;;5070109;28;21142;-50
2021/06/30 09:45:58;;;;;;;2.50;1.83;;;20.40;93.90;;;;;;5070779;28;20617;-49
2021/06/30 09:48:40;;;;;;;2.77;2.57;;;20.30;94.20;;;;;;5071102;28;20747;-50
2021/06/30 09:51:17;;;;;;;2.40;2.20;;;20.10;94.70;;;;;;5048347;28;20621;-48
2021/06/30 09:53:44;;;;;;;2.97;2.77;;;20.20;95.30;;;;;;5070106;28;20725;-49
2021/06/30 09:56:14;;;;;;;2.73;2.27;;;20.50;94.90;;;;;;5068597;28;20625;-50
2021/06/30 09:58:44;;;;;;;3.40;2.77;;;20.60;94.40;;;;;;5071338;28;20690;-52
2021/06/30 10:01:15;;;;;;;4.70;2.07;;;20.80;94.30;;;;;;5070426;28;20660;-49
2021/06/30 10:03:43;;;;;;;2.90;2.67;;;20.80;93.90;;;;;;5069302;28;20649;-49
2021/06/30 10:06:29;;;;;;;2.60;2.27;;;20.70;94.10;;;;;;5070731;28;20667;-49
2021/06/30 10:09:00;;;;;;;2.80;2.60;;;20.60;94.10;;;;;;5070035;28;21052;-49
2021/06/30 10:11:29;;;;;;;4.60;3.00;;;20.50;94.10;;;;;;5070050;28;20613;-49
2021/06/30 10:13:57;;;;;;;3.13;2.93;;;20.40;93.50;;;;;;5068224;28;21047;-48
2021/06/30 10:16:24;;;;;;;2.77;2.57;;;20.30;93.80;;;;;;5051673;28;20637;-49
2021/06/30 10:18:52;;;;;;;5.33;3.10;;;20.20;94.00;;;;;;5068955;28;20629;-50
2021/06/30 10:21:25;;;;;;;3.80;3.50;;;20.20;94.10;;;;;;5069861;28;21232;-49
2021/06/30 10:23:52;;;;;;;2.70;2.50;;;20.00;93.70;;;;;;5051346;28;20661;-49
2021/06/30 10:26:20;;;;;;;3.17;2.93;;;20.00;94.70;;;;;;5070913;28;20655;-50
2021/06/30 10:28:50;;;;;;;5.07;3.37;;;20.30;95.00;;;;;;5051718;28;20676;-49
2021/06/30 10:31:18;;;;;;;3.40;3.20;;;20.50;93.90;;;;;;5069961;28;20979;-48
2021/06/30 10:33:56;;;;;;;3.20;2.33;;;20.40;93.20;;;;;;5069414;28;20714;-49
2021/06/30 10:36:59;;;;;;;2.57;2.37;;;20.50;93.90;;;;;;5048648;28;20691;-49
2021/06/30 10:39:49;;;;;;;3.23;3.03;;;20.80;93.40;;;;;;5067435;28;20625;-50
2021/06/30 10:42:22;;;;;;;3.10;2.90;;;20.90;93.10;;;;;;5071174;28;20983;-49
2021/06/30 10:44:57;;;;;;;2.40;2.30;;;20.80;92.70;;;;;;5068282;28;20766;-49
2021/06/30 10:47:40;;;;;;;3.20;3.00;;;20.70;92.60;;;;;;5064510;28;20633;-50
2021/06/30 10:50:42;;;;;;;3.03;2.50;;;20.60;91.90;;;;;;5067529;28;20656;-50
2021/06/30 10:53:34;;;;;;;3.30;2.90;;;20.60;92.80;;;;;;5066089;28;20652;-50
2021/06/30 10:56:03;;;;;;;4.40;2.30;;;20.60;92.20;;;;;;5069637;28;20728;-50
2021/06/30 10:58:31;;;;;;;2.63;2.43;;;20.80;92.40;;;;;;5067630;28;20621;-50
2021/06/30 11:01:08;;;;;;;14.30;2.07;;;20.80;92.30;;;;;;5051079;28;20621;-48
2021/06/30 11:03:39;;;;;;;2.63;2.43;;;20.60;91.60;;;;;;5069087;28;20625;-50
2021/06/30 11:06:25;;;;;;;1.93;1.83;;;20.50;92.40;;;;;;5068513;28;21022;-50
2021/06/30 11:08:54;;;;;;;2.13;2.00;;;20.50;92.60;;;;;;5051155;28;20671;-49
2021/06/30 11:11:53;;;;;;;2.67;2.40;;;20.60;92.60;;;;;;5069982;28;20625;-48
2021/06/30 11:14:22;;;;;;;3.43;2.40;;;20.60;92.60;;;;;;4988283;28;20709;-54
2021/06/30 11:17:03;;;;;;;2.47;1.70;;;20.50;91.70;;;;;;5050812;28;21294;-51
2021/06/30 11:20:01;;;;;;;1.90;1.80;;;20.70;92.30;;;;;;5069568;28;20625;-49
2021/06/30 11:22:29;;;;;;;2.83;2.63;;;20.70;92.10;;;;;;5069702;28;21201;-50
2021/06/30 11:25:02;;;;;;;2.07;1.97;;;20.70;91.70;;;;;;5069083;28;20672;-50
2021/06/30 11:27:48;;;;;;;1.90;1.70;;;20.50;91.70;;;;;;5051068;28;20621;-50
2021/06/30 11:30:35;;;;;;;1.73;1.63;;;20.60;92.00;;;;;;5068802;28;20647;-53
2021/06/30 11:33:07;;;;;;;2.03;1.93;;;20.60;91.80;;;;;;5069301;28;21045;-50
2021/06/30 11:35:37;;;;;;;3.97;2.20;;;20.80;92.20;;;;;;5049366;28;20663;-51
2021/06/30 11:38:11;;;;;;;2.30;1.83;;;20.80;91.90;;;;;;5070100;28;21009;-49
2021/06/30 11:40:43;;;;;;;2.80;2.13;;;20.70;92.00;;;;;;5067642;28;20728;-48
2021/06/30 11:43:12;;;;;;;4.37;1.70;;;20.80;92.30;;;;;;5050453;28;20675;-49
2021/06/30 11:45:39;;;;;;;1.97;1.73;;;21.20;91.80;;;;;;5068433;28;20710;-49
2021/06/30 11:48:10;;;;;;;7.20;2.20;;;21.30;91.30;;;;;;5068278;28;20679;-50
2021/06/30 11:50:52;;;;;;;2.33;2.13;;;21.20;90.60;;;;;;5066333;28;21008;-50
2021/06/30 11:53:44;;;;;;;1.53;1.20;;;21.40;90.90;;;;;;5051049;28;20636;-49
2021/06/30 11:56:13;;;;;;;1.70;1.60;;;21.70;90.30;;;;;;5067106;28;20786;-50
2021/06/30 11:58:50;;;;;;;4.43;1.43;;;21.80;88.70;;;;;;5068368;28;20710;-49
2021/06/30 12:01:19;;;;;;;4.73;2.07;;;21.90;87.70;;;;;;5068686;28;20682;-49
2021/06/30 12:03:47;;;;;;;1.70;1.60;;;21.70;86.20;;;;;;5067136;28;20652;-50
2021/06/30 12:06:25;;;;;;;1.70;1.60;;;21.70;88.50;;;;;;5066198;28;20657;-50
2021/06/30 12:09:08;;;;;;;2.40;1.50;;;21.70;88.50;;;;;;5066707;28;21241;-50
2021/06/30 12:11:38;;;;;;;6.20;1.90;;;21.80;88.60;;;;;;5066597;28;20693;-52
2021/06/30 12:14:07;;;;;;;1.47;1.37;;;21.70;85.80;;;;;;5070873;28;21021;-49
2021/06/30 12:16:59;;;;;;;2.43;1.50;;;21.60;88.20;;;;;;5068519;28;20645;-48
2021/06/30 12:19:46;;;;;;;3.40;1.57;;;21.50;86.60;;;;;;5057840;28;21026;-50
2021/06/30 12:22:21;;;;;;;2.53;1.40;;;21.40;86.90;;;;;;5067280;28;20633;-50
2021/06/30 12:24:58;;;;;;;2.63;1.60;;;21.30;88.30;;;;;;5067347;28;20853;-50
2021/06/30 12:27:27;;;;;;;1.23;1.13;;;21.30;88.90;;;;;;5063160;28;20645;-49
2021/06/30 12:29:57;;;;;;;1.83;1.37;;;21.30;88.90;;;;;;5068377;28;20749;-50
2021/06/30 12:32:24;;;;;;;1.30;1.20;;;21.50;89.60;;;;;;5068341;28;20664;-49
2021/06/30 12:34:57;;;;;;;1.20;1.10;;;21.50;89.30;;;;;;5069533;28;20653;-50
2021/06/30 12:37:26;;;;;;;4.50;1.10;;;21.70;88.00;;;;;;5070197;28;20625;-50
2021/06/30 12:39:54;;;;;;;1.50;1.40;;;21.60;86.90;;;;;;5068559;28;20633;-51
2021/06/30 12:42:22;;;;;;;1.30;1.20;;;21.40;86.90;;;;;;5068547;28;20661;-50
2021/06/30 12:44:54;;;;;;;1.70;1.10;;;21.30;88.90;;;;;;5067895;28;20673;-50
2021/06/30 12:47:26;;;;;;;1.40;1.30;;;21.20;88.80;;;;;;5064764;28;20625;-50
2021/06/30 12:49:59;;;;;;;1.50;1.40;;;21.20;89.90;;;;;;5065641;28;20677;-54
2021/06/30 12:52:27;;;;;;;3.33;1.30;;;21.20;89.80;;;;;;5067700;28;20660;-49
2021/06/30 12:55:05;;;;;;;1.47;1.10;;;21.10;89.60;;;;;;5061718;28;21063;-51
2021/06/30 12:57:33;;;;;;;2.57;1.23;;;21.20;90.30;;;;;;5069625;28;20682;-51
2021/06/30 13:00:11;;;;;;;1.43;1.33;;;21.20;89.90;;;;;;5070009;28;20672;-49
2021/06/30 13:02:38;;;;;;;1.10;1.00;;;21.00;89.70;;;;;;5082557;28;20635;-47
2021/06/30 13:05:23;;;;;;;2.63;1.40;;;20.90;90.30;;;;;;5090342;28;20671;-49